
Distance (Route):
Temperature : -25.8°C
Humidity : 26.1%
Pressure : 0hPa| Receiver | Frames | First received | Last received |
|---|---|---|---|
| KE7DJD | 349 | 2026-09-02 17:04:50 | 2026-09-02 19:08:04 |
| Receiver | Date | Latitude | Longitude | Direction | Speed | Altitude | Climb | Temperature | Humidity | Pressure | Voltage | Killtimer | Uptime | BKT | XDATA |
|---|---|---|---|---|---|---|---|---|---|---|---|---|---|---|---|
| KE7DJD | 2026-09-02 19:08:04 | 44.00403 | -115.22842 | 77° | 108km/h | 7452m | -10.5m/s | -25.8°C | 26.1% | 0hPa | 0V | 08:08:00 | 00:00:00 | 00:00:00 | |
| KE7DJD | 2026-09-02 19:07:42 | 44.00281 | -115.23627 | 80° | 115km/h | 7675m | -10.1m/s | -27.5°C | 36.4% | 0hPa | 0V | 08:08:00 | 00:00:00 | 00:00:00 | |
| KE7DJD | 2026-09-02 19:07:21 | 44.00140 | -115.24464 | 75° | 119km/h | 7904m | -10.9m/s | -28.7°C | 23.9% | 0hPa | 0V | 08:08:00 | 00:00:00 | 00:00:00 | |
| KE7DJD | 2026-09-02 19:07:01 | 43.99949 | -115.25253 | 71° | 120km/h | 8124m | -11.1m/s | -30.8°C | 26.1% | 0hPa | 0V | 08:09:00 | 00:00:00 | 00:00:00 | |
| KE7DJD | 2026-09-02 19:06:40 | 43.99722 | -115.26084 | 70° | 120km/h | 8361m | -11.6m/s | -32.9°C | 31.3% | 0hPa | 0V | 08:09:00 | 00:00:00 | 00:00:00 | |
| KE7DJD | 2026-09-02 19:06:19 | 43.99500 | -115.26915 | 70° | 120km/h | 8593m | -10.6m/s | -35.0°C | 36.9% | 0hPa | 0V | 08:09:00 | 00:00:00 | 00:00:00 | |
| KE7DJD | 2026-09-02 19:05:58 | 43.99262 | -115.27736 | 69° | 119km/h | 8812m | -10.5m/s | -37.0°C | 37.7% | 0hPa | 0V | 08:10:00 | 00:00:00 | 00:00:00 | |
| KE7DJD | 2026-09-02 19:05:37 | 43.99015 | -115.28524 | 68° | 115km/h | 9028m | -9.9m/s | -38.9°C | 35.5% | 0hPa | 0V | 08:10:00 | 00:00:00 | 00:00:00 | |
| KE7DJD | 2026-09-02 19:05:17 | 43.98797 | -115.29249 | 69° | 110km/h | 9232m | -10.7m/s | -40.5°C | 38.4% | 0hPa | 0V | 08:11:00 | 00:00:00 | 00:00:00 | |
| KE7DJD | 2026-09-02 19:04:56 | 43.98566 | -115.30002 | 67° | 115km/h | 9433m | -9.1m/s | -42.1°C | 40.5% | 0hPa | 0V | 08:11:00 | 00:00:00 | 00:00:00 | |
| KE7DJD | 2026-09-02 19:04:36 | 43.98323 | -115.30747 | 66° | 119km/h | 9610m | -9.1m/s | -43.6°C | 42.4% | 0hPa | 0V | 08:12:00 | 00:00:00 | 00:00:00 | |
| KE7DJD | 2026-09-02 19:04:15 | 43.98046 | -115.31553 | 67° | 120km/h | 9794m | -8.9m/s | -45.2°C | 47.2% | 0hPa | 0V | 08:12:00 | 00:00:00 | 00:00:00 | |
| KE7DJD | 2026-09-02 19:03:55 | 43.97787 | -115.32342 | 65° | 126km/h | 9974m | -8.9m/s | -46.6°C | 52.1% | 0hPa | 0V | 08:12:00 | 00:00:00 | 00:00:00 | |
| KE7DJD | 2026-09-02 19:03:34 | 43.97491 | -115.33178 | 64° | 126km/h | 10166m | -9.4m/s | -48.1°C | 49.2% | 0hPa | 0V | 08:13:00 | 00:00:00 | 00:00:00 | |
| KE7DJD | 2026-09-02 19:03:13 | 43.97183 | -115.34010 | 64° | 124km/h | 10362m | -9.5m/s | -49.5°C | 50.6% | 0hPa | 0V | 08:13:00 | 00:00:00 | 00:00:00 | |
| KE7DJD | 2026-09-02 19:02:53 | 43.96906 | -115.34778 | 63° | 124km/h | 10553m | -9.6m/s | -50.3°C | 50.8% | 0hPa | 0V | 08:14:00 | 00:00:00 | 00:00:00 | |
| KE7DJD | 2026-09-02 19:02:32 | 43.96573 | -115.35590 | 62° | 130km/h | 10762m | -10.2m/s | -51.8°C | 48.6% | 0hPa | 0V | 08:14:00 | 00:00:00 | 00:00:00 | |
| KE7DJD | 2026-09-02 19:02:11 | 43.96244 | -115.36413 | 66° | 124km/h | 10981m | -10.8m/s | -50.5°C | 15.2% | 0hPa | 0V | 08:14:00 | 00:00:00 | 00:00:00 | |
| KE7DJD | 2026-09-02 19:01:50 | 43.96005 | -115.37207 | 68° | 111km/h | 11201m | -10.5m/s | -50.1°C | 9.1% | 0hPa | 0V | 08:14:00 | 00:00:00 | 00:00:00 | |
| KE7DJD | 2026-09-02 19:01:30 | 43.95784 | -115.37905 | 63° | 106km/h | 11416m | -10.8m/s | -50.6°C | 5.4% | 0hPa | 0V | 08:14:00 | 00:00:00 | 00:00:00 | |
| KE7DJD | 2026-09-02 19:01:09 | 43.95526 | -115.38575 | 65° | 99km/h | 11645m | -11.2m/s | -48.8°C | 3.4% | 0hPa | 0V | 08:15:00 | 00:00:00 | 00:00:00 | |
| KE7DJD | 2026-09-02 19:00:48 | 43.95284 | -115.39244 | 65° | 97km/h | 11873m | -10.8m/s | -49.8°C | 2.8% | 0hPa | 0V | 08:15:00 | 00:00:00 | 00:00:00 | |
| KE7DJD | 2026-09-02 19:00:28 | 43.95069 | -115.39809 | 60° | 88km/h | 12084m | -10.2m/s | -49.2°C | 2.0% | 0hPa | 0V | 08:15:00 | 00:00:00 | 00:00:00 | |
| KE7DJD | 2026-09-02 19:00:07 | 43.94827 | -115.40321 | 56° | 78km/h | 12309m | -10.8m/s | -49.2°C | 1.4% | 0hPa | 0V | 08:16:00 | 00:00:00 | 00:00:00 | |
| KE7DJD | 2026-09-02 18:59:47 | 43.94611 | -115.40790 | 61° | 77km/h | 12531m | -11.4m/s | -49.4°C | 1.3% | 0hPa | 0V | 08:16:00 | 00:00:00 | 00:00:00 | |
| KE7DJD | 2026-09-02 18:59:26 | 43.94399 | -115.41319 | 64° | 80km/h | 12768m | -11.6m/s | -48.5°C | 1.2% | 0hPa | 0V | 08:17:00 | 00:00:00 | 00:00:00 | |
| KE7DJD | 2026-09-02 18:59:05 | 43.94211 | -115.41795 | 57° | 69km/h | 13010m | -11.8m/s | -49.6°C | 1.2% | 0hPa | 0V | 08:17:00 | 00:00:00 | 00:00:00 | |
| KE7DJD | 2026-09-02 18:58:44 | 43.93978 | -115.42210 | 46° | 71km/h | 13253m | -12.2m/s | -49.7°C | 1.3% | 0hPa | 0V | 08:17:00 | 00:00:00 | 00:00:00 | |
| KE7DJD | 2026-09-02 18:58:23 | 43.93695 | -115.42595 | 46° | 75km/h | 13500m | -11.6m/s | -50.8°C | 1.4% | 0hPa | 0V | 08:18:00 | 00:00:00 | 00:00:00 | |
| KE7DJD | 2026-09-02 18:57:42 | 43.93184 | -115.43344 | 44° | 62km/h | 14012m | -12.8m/s | -50.7°C | 1.2% | 0hPa | 0V | 08:19:00 | 00:00:00 | 00:00:00 | |
| KE7DJD | 2026-09-02 18:57:21 | 43.92951 | -115.43601 | 40° | 64km/h | 14259m | -11.8m/s | -51.3°C | 1.2% | 0hPa | 0V | 08:19:00 | 00:00:00 | 00:00:00 | |
| KE7DJD | 2026-09-02 18:57:00 | 43.92675 | -115.43934 | 44° | 68km/h | 14517m | -12.0m/s | -51.3°C | 1.2% | 0hPa | 0V | 08:19:00 | 00:00:00 | 00:00:00 | |
| KE7DJD | 2026-09-02 18:56:39 | 43.92403 | -115.44331 | 53° | 64km/h | 14781m | -12.2m/s | -51.5°C | 1.2% | 0hPa | 0V | 08:20:00 | 00:00:00 | 00:00:00 | |
| KE7DJD | 2026-09-02 18:56:18 | 43.92185 | -115.44640 | 40° | 55km/h | 15056m | -13.6m/s | -52.7°C | 1.3% | 0hPa | 0V | 08:20:00 | 00:00:00 | 00:00:00 | |
| KE7DJD | 2026-09-02 18:55:37 | 43.91669 | -115.45191 | 30° | 73km/h | 15734m | -20.5m/s | -51.5°C | 1.1% | 0hPa | 0V | 08:20:00 | 00:00:00 | 00:00:00 | |
| KE7DJD | 2026-09-02 18:55:16 | 43.91364 | -115.45420 | 39° | 60km/h | 16180m | -21.4m/s | -50.9°C | 1.0% | 0hPa | 0V | 08:20:00 | 00:00:00 | 00:00:00 | |
| KE7DJD | 2026-09-02 18:54:56 | 43.91100 | -115.45698 | 37° | 60km/h | 16623m | -20.6m/s | -52.6°C | 1.2% | 0hPa | 0V | 08:21:00 | 00:00:00 | 00:00:00 | |
| KE7DJD | 2026-09-02 18:54:36 | 43.90932 | -115.46013 | 80° | 49km/h | 17073m | -24.1m/s | -52.0°C | 1.1% | 0hPa | 0V | 08:21:00 | 00:00:00 | 00:00:00 | |
| KE7DJD | 2026-09-02 18:54:15 | 43.90904 | -115.46232 | 80° | 11km/h | 17585m | -23.9m/s | -51.9°C | 1.0% | 0hPa | 0V | 08:22:00 | 00:00:00 | 00:00:00 | |
| KE7DJD | 2026-09-02 18:53:54 | 43.90818 | -115.46313 | 41° | 27km/h | 18107m | -23.2m/s | -52.3°C | 1.0% | 0hPa | 0V | 08:22:00 | 00:00:00 | 00:00:00 | |
| KE7DJD | 2026-09-02 18:53:33 | 43.90772 | -115.46397 | 102° | 5km/h | 18557m | -22.3m/s | -53.8°C | 1.1% | 0hPa | 0V | 08:23:00 | 00:00:00 | 00:00:00 | |
| KE7DJD | 2026-09-02 18:53:12 | 43.90710 | -115.46466 | 12° | 29km/h | 19017m | -21.8m/s | -54.3°C | 1.3% | 0hPa | 0V | 08:23:00 | 00:00:00 | 00:00:00 | |
| KE7DJD | 2026-09-02 18:52:51 | 43.90603 | -115.46443 | 332° | 22km/h | 19496m | -23.0m/s | -52.6°C | 1.0% | 0hPa | 0V | 08:23:00 | 00:00:00 | 00:00:00 | |
| KE7DJD | 2026-09-02 18:52:31 | 43.90487 | -115.46402 | 11° | 27km/h | 19964m | -23.5m/s | -55.5°C | 1.2% | 0hPa | 0V | 08:24:00 | 00:00:00 | 00:00:00 | |
| KE7DJD | 2026-09-02 18:52:12 | 43.90390 | -115.46544 | 95° | 24km/h | 20446m | -24.4m/s | -55.5°C | 1.2% | 0hPa | 0V | 08:24:00 | 00:00:00 | 00:00:00 | |
| KE7DJD | 2026-09-02 18:51:51 | 43.90411 | -115.46622 | 341° | 16km/h | 20905m | -21.7m/s | -54.9°C | 1.1% | 0hPa | 0V | 08:25:00 | 00:00:00 | 00:00:00 | |
| KE7DJD | 2026-09-02 18:51:29 | 43.90285 | -115.46673 | 48° | 35km/h | 21381m | -23.0m/s | -54.7°C | 1.1% | 0hPa | 0V | 08:25:00 | 00:00:00 | 00:00:00 | |
| KE7DJD | 2026-09-02 18:51:08 | 43.90252 | -115.46799 | 17° | 9km/h | 21892m | -24.0m/s | -54.6°C | 1.1% | 0hPa | 0V | 08:25:00 | 00:00:00 | 00:00:00 | |
| KE7DJD | 2026-09-02 18:50:48 | 43.90219 | -115.46830 | 0° | 0km/h | 22401m | -24.5m/s | -53.8°C | 1.1% | 0hPa | 0V | 08:25:00 | 00:00:00 | 00:00:00 | |
| KE7DJD | 2026-09-02 18:50:27 | 43.90174 | -115.46885 | 71° | 11km/h | 22997m | -34.9m/s | -53.3°C | 1.0% | 0hPa | 0V | 08:25:00 | 00:00:00 | 00:00:00 | |
| KE7DJD | 2026-09-02 18:50:07 | 43.90230 | -115.46842 | 240° | 18km/h | 23618m | -29.7m/s | -52.5°C | 1.0% | 0hPa | 0V | 08:26:00 | 00:00:00 | 00:00:00 | |
| KE7DJD | 2026-09-02 18:49:46 | 43.90261 | -115.46794 | 255° | 16km/h | 24347m | -36.1m/s | -51.1°C | 0.8% | 0hPa | 0V | 08:26:00 | 00:00:00 | 00:00:00 | |
| KE7DJD | 2026-09-02 18:49:26 | 43.90242 | -115.46741 | 331° | 13km/h | 25025m | -33.3m/s | -51.5°C | 0.9% | 0hPa | 0V | 08:26:00 | 00:00:00 | 00:00:00 | |
| KE7DJD | 2026-09-02 18:49:05 | 43.90248 | -115.46712 | 244° | 18km/h | 25745m | -34.4m/s | -49.4°C | 0.7% | 0hPa | 0V | 08:27:00 | 00:00:00 | 00:00:00 | |
| KE7DJD | 2026-09-02 18:48:44 | 43.90235 | -115.46650 | 258° | 13km/h | 26406m | -31.5m/s | -49.6°C | 0.8% | 0hPa | 0V | 08:27:00 | 00:00:00 | 00:00:00 | |
| KE7DJD | 2026-09-02 18:48:24 | 43.90203 | -115.46560 | 346° | 13km/h | 27099m | -33.7m/s | -50.2°C | 0.8% | 0hPa | 0V | 08:28:00 | 00:00:00 | 00:00:00 | |
| KE7DJD | 2026-09-02 18:48:03 | 43.90217 | -115.46561 | 208° | 9km/h | 27841m | -37.6m/s | -48.3°C | 0.7% | 0hPa | 0V | 08:28:00 | 00:00:00 | 00:00:00 | |
| KE7DJD | 2026-09-02 18:47:42 | 43.90241 | -115.46531 | 248° | 15km/h | 28701m | -39.0m/s | -45.9°C | 0.6% | 0hPa | 0V | 08:28:00 | 00:00:00 | 00:00:00 | |
| KE7DJD | 2026-09-02 18:47:22 | 43.90248 | -115.46445 | 41° | 11km/h | 29493m | -41.9m/s | -45.9°C | 0.6% | 0hPa | 0V | 08:29:00 | 00:00:00 | 00:00:00 | |
| KE7DJD | 2026-09-02 18:46:41 | 43.90280 | -115.46494 | 233° | 11km/h | 31114m | -29.5m/s | -41.9°C | 0.5% | 0hPa | 0V | 00:00:00 | 00:00:00 | 00:00:00 | |
| KE7DJD | 2026-09-02 18:46:21 | 43.90402 | -115.46500 | 128° | 22km/h | 31670m | -23.5m/s | -40.9°C | 0.4% | 0hPa | 0V | 00:00:00 | 00:00:00 | 00:00:00 | |
| KE7DJD | 2026-09-02 18:45:59 | 43.90406 | -115.46457 | 228° | 18km/h | 32393m | -38.2m/s | -41.2°C | 0.5% | 0hPa | 0V | 00:00:00 | 00:00:00 | 00:00:00 | |
| KE7DJD | 2026-09-02 18:45:38 | 43.90358 | -115.46380 | 331° | 11km/h | 33150m | -14.3m/s | -39.3°C | 0.4% | 0hPa | 0V | 00:00:00 | 00:00:00 | 00:00:00 | |
| KE7DJD | 2026-09-02 18:45:17 | 43.90235 | -115.46393 | 265° | 24km/h | 33043m | 4.9m/s | -40.3°C | 0.4% | 0hPa | 0V | 00:00:00 | 00:00:00 | 00:00:00 | |
| KE7DJD | 2026-09-02 18:44:56 | 43.90176 | -115.46358 | 270° | 15km/h | 32921m | 6.7m/s | -41.3°C | 0.4% | 0hPa | 0V | 00:00:00 | 00:00:00 | 00:00:00 | |
| KE7DJD | 2026-09-02 18:44:35 | 43.90169 | -115.46243 | 325° | 11km/h | 32796m | 7.3m/s | -41.5°C | 0.5% | 0hPa | 0V | 00:00:00 | 00:00:00 | 00:00:00 | |
| KE7DJD | 2026-09-02 18:44:14 | 43.90177 | -115.46104 | 208° | 18km/h | 32665m | 6.3m/s | -41.3°C | 0.5% | 0hPa | 0V | 00:00:00 | 00:00:00 | 00:00:00 | |
| KE7DJD | 2026-09-02 18:43:54 | 43.90242 | -115.46001 | 218° | 38km/h | 32539m | 5.3m/s | -41.0°C | 0.4% | 0hPa | 0V | 00:00:00 | 00:00:00 | 00:00:00 | |
| KE7DJD | 2026-09-02 18:43:34 | 43.90319 | -115.45949 | 227° | 51km/h | 32410m | 6.7m/s | -41.1°C | 0.5% | 0hPa | 0V | 00:00:00 | 00:00:00 | 00:00:00 | |
| KE7DJD | 2026-09-02 18:43:14 | 43.90397 | -115.45915 | 154° | 11km/h | 32270m | 8.5m/s | -40.1°C | 0.4% | 0hPa | 0V | 00:00:00 | 00:00:00 | 00:00:00 | |
| KE7DJD | 2026-09-02 18:42:51 | 43.90422 | -115.45924 | 226° | 29km/h | 32119m | 6.5m/s | -40.1°C | 0.4% | 0hPa | 0V | 00:00:00 | 00:00:00 | 00:00:00 | |
| KE7DJD | 2026-09-02 18:42:30 | 43.90356 | -115.45876 | 308° | 29km/h | 31977m | 6.6m/s | -40.2°C | 0.4% | 0hPa | 0V | 00:00:00 | 00:00:00 | 00:00:00 | |
| KE7DJD | 2026-09-02 18:42:09 | 43.90301 | -115.45825 | 288° | 16km/h | 31829m | 8.7m/s | -39.6°C | 0.4% | 0hPa | 0V | 00:00:00 | 00:00:00 | 00:00:00 | |
| KE7DJD | 2026-09-02 18:41:49 | 43.90344 | -115.45787 | 221° | 27km/h | 31691m | 6.9m/s | -39.4°C | 0.4% | 0hPa | 0V | 00:00:00 | 00:00:00 | 00:00:00 | |
| KE7DJD | 2026-09-02 18:41:29 | 43.90415 | -115.45708 | 158° | 38km/h | 31555m | 7.8m/s | -39.7°C | 0.4% | 0hPa | 0V | 00:00:00 | 00:00:00 | 00:00:00 | |
| KE7DJD | 2026-09-02 18:41:09 | 43.90544 | -115.45643 | 200° | 26km/h | 31424m | 7.5m/s | -39.8°C | 0.4% | 0hPa | 0V | 00:00:00 | 00:00:00 | 00:00:00 | |
| KE7DJD | 2026-09-02 18:40:48 | 43.90630 | -115.45610 | 204° | 16km/h | 31284m | 6.0m/s | -40.5°C | 0.4% | 0hPa | 0V | 00:00:00 | 00:00:00 | 00:00:00 | |
| KE7DJD | 2026-09-02 18:40:28 | 43.90644 | -115.45630 | 165° | 7km/h | 31151m | 6.3m/s | -41.9°C | 0.5% | 0hPa | 0V | 00:00:00 | 00:00:00 | 00:00:00 | |
| KE7DJD | 2026-09-02 18:40:07 | 43.90630 | -115.45557 | 325° | 9km/h | 31015m | 7.5m/s | -42.5°C | 0.5% | 0hPa | 0V | 00:00:00 | 00:00:00 | 00:00:00 | |
| KE7DJD | 2026-09-02 18:39:46 | 43.90629 | -115.45587 | 168° | 16km/h | 30877m | 7.3m/s | -43.5°C | 0.6% | 0hPa | 0V | 00:00:00 | 00:00:00 | 00:00:00 | |
| KE7DJD | 2026-09-02 18:39:25 | 43.90647 | -115.45685 | 81° | 29km/h | 30740m | 6.0m/s | -43.1°C | 0.6% | 0hPa | 0V | 00:00:00 | 00:00:00 | 00:00:00 | |
| KE7DJD | 2026-09-02 18:39:05 | 43.90622 | -115.45730 | 216° | 13km/h | 30610m | 7.0m/s | -42.6°C | 0.5% | 0hPa | 0V | 00:00:00 | 00:00:00 | 00:00:00 | |
| KE7DJD | 2026-09-02 18:38:44 | 43.90606 | -115.45679 | 313° | 29km/h | 30472m | 6.3m/s | -44.4°C | 0.5% | 0hPa | 0V | 00:00:00 | 00:00:00 | 00:00:00 | |
| KE7DJD | 2026-09-02 18:38:24 | 43.90620 | -115.45582 | 273° | 15km/h | 30346m | 6.4m/s | -45.0°C | 0.6% | 0hPa | 0V | 00:00:00 | 00:00:00 | 00:00:00 | |
| KE7DJD | 2026-09-02 18:38:04 | 43.90693 | -115.45553 | 147° | 13km/h | 30221m | 6.9m/s | -45.3°C | 0.6% | 0hPa | 0V | 00:00:00 | 00:00:00 | 00:00:00 | |
| KE7DJD | 2026-09-02 18:37:43 | 43.90771 | -115.45666 | 177° | 29km/h | 30091m | 5.2m/s | -46.4°C | 0.6% | 0hPa | 0V | 00:00:00 | 00:00:00 | 00:00:00 | |
| KE7DJD | 2026-09-02 18:37:22 | 43.90794 | -115.45807 | 79° | 40km/h | 29961m | 5.6m/s | -46.1°C | 0.6% | 0hPa | 0V | 00:00:00 | 00:00:00 | 00:00:00 | |
| KE7DJD | 2026-09-02 18:37:02 | 43.90751 | -115.45958 | 47° | 26km/h | 29832m | 7.6m/s | -46.4°C | 0.6% | 0hPa | 0V | 00:00:00 | 00:00:00 | 00:00:00 | |
| KE7DJD | 2026-09-02 18:36:42 | 43.90647 | -115.46081 | 42° | 11km/h | 29703m | 6.6m/s | -46.4°C | 0.7% | 0hPa | 0V | 00:00:00 | 00:00:00 | 00:00:00 | |
| KE7DJD | 2026-09-02 18:36:21 | 43.90596 | -115.46136 | 296° | 11km/h | 29573m | 7.0m/s | -46.2°C | 0.7% | 0hPa | 0V | 00:00:00 | 00:00:00 | 00:00:00 | |
| KE7DJD | 2026-09-02 18:35:59 | 43.90558 | -115.46148 | 242° | 11km/h | 29429m | 6.2m/s | -46.4°C | 0.7% | 0hPa | 0V | 00:00:00 | 00:00:00 | 00:00:00 | |
| KE7DJD | 2026-09-02 18:35:39 | 43.90514 | -115.46062 | 353° | 13km/h | 29297m | 7.2m/s | -45.8°C | 0.7% | 0hPa | 0V | 00:00:00 | 00:00:00 | 00:00:00 | |
| KE7DJD | 2026-09-02 18:35:18 | 43.90507 | -115.45884 | 307° | 38km/h | 29161m | 7.4m/s | -46.5°C | 0.7% | 0hPa | 0V | 00:00:00 | 00:00:00 | 00:00:00 | |
| KE7DJD | 2026-09-02 18:34:57 | 43.90491 | -115.45679 | 269° | 33km/h | 29024m | 6.6m/s | -46.4°C | 0.7% | 0hPa | 0V | 00:00:00 | 00:00:00 | 00:00:00 | |
| KE7DJD | 2026-09-02 18:34:37 | 43.90495 | -115.45506 | 263° | 31km/h | 28893m | 6.0m/s | -46.0°C | 0.7% | 0hPa | 0V | 00:00:00 | 00:00:00 | 00:00:00 | |
| KE7DJD | 2026-09-02 18:34:17 | 43.90564 | -115.45375 | 244° | 20km/h | 28760m | 7.9m/s | -45.2°C | 0.7% | 0hPa | 0V | 00:00:00 | 00:00:00 | 00:00:00 | |
| KE7DJD | 2026-09-02 18:33:56 | 43.90619 | -115.45242 | 207° | 20km/h | 28620m | 7.0m/s | -44.9°C | 0.6% | 0hPa | 0V | 00:00:00 | 00:00:00 | 00:00:00 | |
| KE7DJD | 2026-09-02 18:33:35 | 43.90699 | -115.45157 | 241° | 26km/h | 28483m | 6.2m/s | -45.0°C | 0.6% | 0hPa | 0V | 00:00:00 | 00:00:00 | 00:00:00 | |
| KE7DJD | 2026-09-02 18:33:10 | 43.90743 | -115.45101 | 263° | 9km/h | 28323m | 4.6m/s | -46.4°C | 0.7% | 0hPa | 0V | 00:00:00 | 00:00:00 | 00:00:00 | |
| KE7DJD | 2026-09-02 18:32:49 | 43.90801 | -115.45123 | 181° | 22km/h | 28192m | 6.2m/s | -47.6°C | 0.7% | 0hPa | 0V | 00:00:00 | 00:00:00 | 00:00:00 | |
| KE7DJD | 2026-09-02 18:32:29 | 43.90839 | -115.45105 | 215° | 9km/h | 28072m | 6.4m/s | -48.3°C | 0.8% | 0hPa | 0V | 00:00:00 | 00:00:00 | 00:00:00 | |
| KE7DJD | 2026-09-02 18:32:09 | 43.90900 | -115.45068 | 233° | 16km/h | 27952m | 6.7m/s | -48.2°C | 0.7% | 0hPa | 0V | 00:00:00 | 00:00:00 | 00:00:00 | |
| KE7DJD | 2026-09-02 18:31:49 | 43.90975 | -115.45061 | 147° | 13km/h | 27834m | 6.9m/s | -48.4°C | 0.7% | 0hPa | 0V | 00:00:00 | 00:00:00 | 00:00:00 | |
| KE7DJD | 2026-09-02 18:31:28 | 43.91056 | -115.45036 | 162° | 24km/h | 27708m | 6.3m/s | -48.2°C | 0.8% | 0hPa | 0V | 00:00:00 | 00:00:00 | 00:00:00 | |
| KE7DJD | 2026-09-02 18:31:08 | 43.91123 | -115.45037 | 193° | 22km/h | 27593m | 5.6m/s | -49.1°C | 0.8% | 0hPa | 0V | 00:00:00 | 00:00:00 | 00:00:00 | |
| KE7DJD | 2026-09-02 18:30:48 | 43.91155 | -115.45098 | 109° | 13km/h | 27477m | 6.3m/s | -49.5°C | 0.8% | 0hPa | 0V | 00:00:00 | 00:00:00 | 00:00:00 | |
| KE7DJD | 2026-09-02 18:30:27 | 43.91175 | -115.45161 | 1° | 20km/h | 27358m | 6.9m/s | -50.0°C | 0.8% | 0hPa | 0V | 00:00:00 | 00:00:00 | 00:00:00 | |
| KE7DJD | 2026-09-02 18:30:07 | 43.91141 | -115.45173 | 302° | 9km/h | 27246m | 5.9m/s | -50.6°C | 0.9% | 0hPa | 0V | 00:00:00 | 00:00:00 | 00:00:00 | |
| KE7DJD | 2026-09-02 18:29:46 | 43.91070 | -115.45133 | 192° | 4km/h | 27129m | 3.9m/s | -50.7°C | 0.9% | 0hPa | 0V | 00:00:00 | 00:00:00 | 00:00:00 | |
| KE7DJD | 2026-09-02 18:29:26 | 43.90999 | -115.45017 | 255° | 5km/h | 27017m | 7.5m/s | -50.8°C | 0.9% | 0hPa | 0V | 00:00:00 | 00:00:00 | 00:00:00 | |
| KE7DJD | 2026-09-02 18:29:05 | 43.90959 | -115.44918 | 343° | 11km/h | 26897m | 6.7m/s | -50.3°C | 0.9% | 0hPa | 0V | 00:00:00 | 00:00:00 | 00:00:00 | |
| KE7DJD | 2026-09-02 18:28:45 | 43.90936 | -115.44816 | 271° | 37km/h | 26781m | 5.6m/s | -49.7°C | 0.8% | 0hPa | 0V | 00:00:00 | 00:00:00 | 00:00:00 | |
| KE7DJD | 2026-09-02 18:28:25 | 43.90934 | -115.44668 | 266° | 31km/h | 26662m | 6.7m/s | -50.0°C | 0.8% | 0hPa | 0V | 00:00:00 | 00:00:00 | 00:00:00 | |
| KE7DJD | 2026-09-02 18:28:05 | 43.90961 | -115.44561 | 230° | 15km/h | 26541m | 6.5m/s | -50.1°C | 0.9% | 0hPa | 0V | 00:00:00 | 00:00:00 | 00:00:00 | |
| KE7DJD | 2026-09-02 18:27:25 | 43.90887 | -115.44539 | 24° | 18km/h | 26283m | 7.5m/s | -50.8°C | 0.9% | 0hPa | 0V | 00:00:00 | 00:00:00 | 00:00:00 | |
| KE7DJD | 2026-09-02 18:27:03 | 43.90782 | -115.44501 | 324° | 27km/h | 26148m | 6.8m/s | -50.2°C | 0.9% | 0hPa | 0V | 00:00:00 | 00:00:00 | 00:00:00 | |
| KE7DJD | 2026-09-02 18:26:42 | 43.90734 | -115.44425 | 298° | 37km/h | 26015m | 5.7m/s | -49.7°C | 0.9% | 0hPa | 0V | 00:00:00 | 00:00:00 | 00:00:00 | |
| KE7DJD | 2026-09-02 18:26:21 | 43.90757 | -115.44339 | 215° | 20km/h | 25885m | 5.7m/s | -49.6°C | 0.8% | 0hPa | 0V | 00:00:00 | 00:00:00 | 00:00:00 | |
| KE7DJD | 2026-09-02 18:26:00 | 43.90793 | -115.44296 | 209° | 7km/h | 25760m | 5.8m/s | -49.9°C | 0.9% | 0hPa | 0V | 00:00:00 | 00:00:00 | 00:00:00 | |
| KE7DJD | 2026-09-02 18:25:39 | 43.90829 | -115.44264 | 107° | 11km/h | 25637m | 6.1m/s | -50.5°C | 0.9% | 0hPa | 0V | 00:00:00 | 00:00:00 | 00:00:00 | |
| KE7DJD | 2026-09-02 18:25:18 | 43.90833 | -115.44189 | 194° | 7km/h | 25521m | 7.0m/s | -50.5°C | 0.9% | 0hPa | 0V | 00:00:00 | 00:00:00 | 00:00:00 | |
| KE7DJD | 2026-09-02 18:24:57 | 43.90845 | -115.44199 | 94° | 4km/h | 25405m | 5.9m/s | -50.3°C | 0.9% | 0hPa | 0V | 00:00:00 | 00:00:00 | 00:00:00 | |
| KE7DJD | 2026-09-02 18:24:37 | 43.90841 | -115.44279 | 346° | 9km/h | 25296m | 5.5m/s | -50.3°C | 0.9% | 0hPa | 0V | 00:00:00 | 00:00:00 | 00:00:00 | |
| KE7DJD | 2026-09-02 18:24:18 | 43.90777 | -115.44293 | 349° | 7km/h | 25188m | 6.3m/s | -50.3°C | 0.9% | 0hPa | 0V | 00:00:00 | 00:00:00 | 00:00:00 | |
| KE7DJD | 2026-09-02 18:23:56 | 43.90716 | -115.44234 | 309° | 13km/h | 25073m | 4.5m/s | -51.0°C | 0.9% | 0hPa | 0V | 00:00:00 | 00:00:00 | 00:00:00 | |
| KE7DJD | 2026-09-02 18:23:29 | 43.90637 | -115.44167 | 263° | 24km/h | 24924m | 4.0m/s | -51.6°C | 1.0% | 0hPa | 0V | 00:00:00 | 00:00:00 | 00:00:00 | |
| KE7DJD | 2026-09-02 18:23:09 | 43.90569 | -115.44086 | 297° | 20km/h | 24806m | 6.1m/s | -51.1°C | 0.9% | 0hPa | 0V | 00:00:00 | 00:00:00 | 00:00:00 | |
| KE7DJD | 2026-09-02 18:22:46 | 43.90514 | -115.43976 | 343° | 18km/h | 24675m | 5.6m/s | -51.2°C | 0.9% | 0hPa | 0V | 00:00:00 | 00:00:00 | 00:00:00 | |
| KE7DJD | 2026-09-02 18:22:22 | 43.90521 | -115.43858 | 238° | 29km/h | 24540m | 5.1m/s | -51.6°C | 1.0% | 0hPa | 0V | 00:00:00 | 00:00:00 | 00:00:00 | |
| KE7DJD | 2026-09-02 18:22:01 | 43.90564 | -115.43748 | 238° | 24km/h | 24427m | 5.3m/s | -51.7°C | 1.0% | 0hPa | 0V | 00:00:00 | 00:00:00 | 00:00:00 | |
| KE7DJD | 2026-09-02 18:21:40 | 43.90571 | -115.43644 | 310° | 9km/h | 24305m | 6.8m/s | -51.7°C | 1.0% | 0hPa | 0V | 00:00:00 | 00:00:00 | 00:00:00 | |
| KE7DJD | 2026-09-02 18:21:19 | 43.90601 | -115.43611 | 131° | 9km/h | 24186m | 4.5m/s | -52.4°C | 1.0% | 0hPa | 0V | 00:00:00 | 00:00:00 | 00:00:00 | |
| KE7DJD | 2026-09-02 18:20:59 | 43.90656 | -115.43642 | 83° | 13km/h | 24072m | 4.3m/s | -52.8°C | 1.0% | 0hPa | 0V | 00:00:00 | 00:00:00 | 00:00:00 | |
| KE7DJD | 2026-09-02 18:20:39 | 43.90679 | -115.43636 | 175° | 5km/h | 23953m | 6.0m/s | -52.8°C | 1.1% | 0hPa | 0V | 00:00:00 | 00:00:00 | 00:00:00 | |
| KE7DJD | 2026-09-02 18:20:17 | 43.90671 | -115.43568 | 267° | 18km/h | 23835m | 4.9m/s | -52.5°C | 1.0% | 0hPa | 0V | 00:00:00 | 00:00:00 | 00:00:00 | |
| KE7DJD | 2026-09-02 18:19:50 | 43.90707 | -115.43430 | 231° | 20km/h | 23686m | 5.0m/s | -52.4°C | 1.1% | 0hPa | 0V | 00:00:00 | 00:00:00 | 00:00:00 | |
| KE7DJD | 2026-09-02 18:19:30 | 43.90785 | -115.43347 | 196° | 18km/h | 23569m | 4.4m/s | -52.4°C | 1.0% | 0hPa | 0V | 00:00:00 | 00:00:00 | 00:00:00 | |
| KE7DJD | 2026-09-02 18:19:08 | 43.90851 | -115.43310 | 238° | 27km/h | 23454m | 4.8m/s | -53.2°C | 1.1% | 0hPa | 0V | 00:00:00 | 00:00:00 | 00:00:00 | |
| KE7DJD | 2026-09-02 18:18:47 | 43.90924 | -115.43311 | 180° | 7km/h | 23343m | 4.9m/s | -53.3°C | 1.0% | 0hPa | 0V | 00:00:00 | 00:00:00 | 00:00:00 | |
| KE7DJD | 2026-09-02 18:18:27 | 43.90977 | -115.43360 | 182° | 4km/h | 23238m | 4.2m/s | -53.7°C | 1.1% | 0hPa | 0V | 00:00:00 | 00:00:00 | 00:00:00 | |
| KE7DJD | 2026-09-02 18:18:07 | 43.90969 | -115.43446 | 52° | 13km/h | 23132m | 6.1m/s | -54.2°C | 1.1% | 0hPa | 0V | 00:00:00 | 00:00:00 | 00:00:00 | |
| KE7DJD | 2026-09-02 18:17:46 | 43.90924 | -115.43532 | 45° | 16km/h | 23021m | 4.5m/s | -54.5°C | 1.1% | 0hPa | 0V | 00:00:00 | 00:00:00 | 00:00:00 | |
| KE7DJD | 2026-09-02 18:17:25 | 43.90851 | -115.43600 | 17° | 27km/h | 22908m | 4.1m/s | -55.0°C | 1.2% | 0hPa | 0V | 00:00:00 | 00:00:00 | 00:00:00 | |
| KE7DJD | 2026-09-02 18:17:05 | 43.90790 | -115.43592 | 348° | 13km/h | 22807m | 5.3m/s | -54.7°C | 1.2% | 0hPa | 0V | 00:00:00 | 00:00:00 | 00:00:00 | |
| KE7DJD | 2026-09-02 18:16:45 | 43.90746 | -115.43587 | 323° | 9km/h | 22694m | 6.2m/s | -54.2°C | 1.1% | 0hPa | 0V | 00:00:00 | 00:00:00 | 00:00:00 | |
| KE7DJD | 2026-09-02 18:16:23 | 43.90733 | -115.43596 | 184° | 2km/h | 22582m | 5.1m/s | -53.8°C | 1.2% | 0hPa | 0V | 00:00:00 | 00:00:00 | 00:00:00 | |
| KE7DJD | 2026-09-02 18:16:03 | 43.90753 | -115.43561 | 256° | 22km/h | 22477m | 4.7m/s | -53.4°C | 1.1% | 0hPa | 0V | 00:00:00 | 00:00:00 | 00:00:00 | |
| KE7DJD | 2026-09-02 18:15:43 | 43.90812 | -115.43536 | 238° | 15km/h | 22364m | 6.6m/s | -53.0°C | 1.1% | 0hPa | 0V | 00:00:00 | 00:00:00 | 00:00:00 | |
| KE7DJD | 2026-09-02 18:15:23 | 43.90859 | -115.43483 | 204° | 7km/h | 22250m | 5.5m/s | -52.4°C | 1.1% | 0hPa | 0V | 00:00:00 | 00:00:00 | 00:00:00 | |
| KE7DJD | 2026-09-02 18:14:42 | 43.90859 | -115.43461 | 33° | 7km/h | 22014m | 5.2m/s | -53.1°C | 1.1% | 0hPa | 0V | 00:00:00 | 00:00:00 | 00:00:00 | |
| KE7DJD | 2026-09-02 18:14:21 | 43.90769 | -115.43459 | 351° | 24km/h | 21890m | 6.3m/s | -53.2°C | 1.1% | 0hPa | 0V | 00:00:00 | 00:00:00 | 00:00:00 | |
| KE7DJD | 2026-09-02 18:14:01 | 43.90690 | -115.43440 | 339° | 26km/h | 21772m | 4.7m/s | -53.0°C | 1.2% | 0hPa | 0V | 00:00:00 | 00:00:00 | 00:00:00 | |
| KE7DJD | 2026-09-02 18:13:40 | 43.90637 | -115.43428 | 317° | 4km/h | 21656m | 4.9m/s | -53.0°C | 1.1% | 0hPa | 0V | 00:00:00 | 00:00:00 | 00:00:00 | |
| KE7DJD | 2026-09-02 18:13:20 | 43.90592 | -115.43469 | 150° | 2km/h | 21541m | 4.9m/s | -52.6°C | 1.1% | 0hPa | 0V | 00:00:00 | 00:00:00 | 00:00:00 | |
| KE7DJD | 2026-09-02 18:12:48 | 43.90557 | -115.43700 | 62° | 37km/h | 21382m | 4.8m/s | -53.4°C | 1.2% | 0hPa | 0V | 00:00:00 | 00:00:00 | 00:00:00 | |
| KE7DJD | 2026-09-02 18:12:29 | 43.90456 | -115.43861 | 30° | 29km/h | 21274m | 5.0m/s | -53.9°C | 1.2% | 0hPa | 0V | 00:00:00 | 00:00:00 | 00:00:00 | |
| KE7DJD | 2026-09-02 18:12:07 | 43.90309 | -115.43949 | 26° | 24km/h | 21168m | 4.8m/s | -53.3°C | 1.1% | 0hPa | 0V | 00:00:00 | 00:00:00 | 00:00:00 | |
| KE7DJD | 2026-09-02 18:11:47 | 43.90173 | -115.43995 | 350° | 26km/h | 21064m | 4.2m/s | -53.4°C | 1.2% | 0hPa | 0V | 00:00:00 | 00:00:00 | 00:00:00 | |
| KE7DJD | 2026-09-02 18:11:26 | 43.90058 | -115.43993 | 29° | 15km/h | 20955m | 4.9m/s | -54.4°C | 1.2% | 0hPa | 0V | 00:00:00 | 00:00:00 | 00:00:00 | |
| KE7DJD | 2026-09-02 18:11:05 | 43.89992 | -115.44018 | 46° | 20km/h | 20842m | 4.3m/s | -54.8°C | 1.2% | 0hPa | 0V | 00:00:00 | 00:00:00 | 00:00:00 | |
| KE7DJD | 2026-09-02 18:10:44 | 43.90000 | -115.44099 | 99° | 22km/h | 20733m | 6.2m/s | -55.7°C | 1.3% | 0hPa | 0V | 00:00:00 | 00:00:00 | 00:00:00 | |
| KE7DJD | 2026-09-02 18:10:23 | 43.90008 | -115.44203 | 85° | 13km/h | 20623m | 6.2m/s | -55.3°C | 1.3% | 0hPa | 0V | 00:00:00 | 00:00:00 | 00:00:00 | |
| KE7DJD | 2026-09-02 18:10:02 | 43.89991 | -115.44346 | 43° | 24km/h | 20512m | 5.0m/s | -55.5°C | 1.3% | 0hPa | 0V | 00:00:00 | 00:00:00 | 00:00:00 | |
| KE7DJD | 2026-09-02 18:09:42 | 43.89923 | -115.44540 | 46° | 37km/h | 20408m | 4.6m/s | -55.5°C | 1.4% | 0hPa | 0V | 00:00:00 | 00:00:00 | 00:00:00 | |
| KE7DJD | 2026-09-02 18:09:21 | 43.89786 | -115.44758 | 53° | 44km/h | 20296m | 4.3m/s | -55.9°C | 1.4% | 0hPa | 0V | 00:00:00 | 00:00:00 | 00:00:00 | |
| KE7DJD | 2026-09-02 18:09:01 | 43.89614 | -115.44938 | 24° | 47km/h | 20191m | 5.6m/s | -55.7°C | 1.4% | 0hPa | 0V | 00:00:00 | 00:00:00 | 00:00:00 | |
| KE7DJD | 2026-09-02 18:08:40 | 43.89417 | -115.45049 | 4° | 42km/h | 20081m | 4.3m/s | -55.4°C | 1.3% | 0hPa | 0V | 00:00:00 | 00:00:00 | 00:00:00 | |
| KE7DJD | 2026-09-02 18:08:19 | 43.89231 | -115.45066 | 5° | 40km/h | 19966m | 4.7m/s | -54.9°C | 1.3% | 0hPa | 0V | 00:00:00 | 00:00:00 | 00:00:00 | |
| KE7DJD | 2026-09-02 18:07:59 | 43.89074 | -115.45064 | 357° | 20km/h | 19860m | 5.1m/s | -54.2°C | 1.3% | 0hPa | 0V | 00:00:00 | 00:00:00 | 00:00:00 | |
| KE7DJD | 2026-09-02 18:07:38 | 43.88946 | -115.44994 | 340° | 26km/h | 19751m | 4.1m/s | -53.8°C | 1.3% | 0hPa | 0V | 00:00:00 | 00:00:00 | 00:00:00 | |
| KE7DJD | 2026-09-02 18:07:18 | 43.88836 | -115.44881 | 325° | 31km/h | 19650m | 5.3m/s | -53.3°C | 1.2% | 0hPa | 0V | 00:00:00 | 00:00:00 | 00:00:00 | |
| KE7DJD | 2026-09-02 18:06:57 | 43.88763 | -115.44744 | 285° | 20km/h | 19542m | 4.9m/s | -52.5°C | 1.2% | 0hPa | 0V | 00:00:00 | 00:00:00 | 00:00:00 | |
| KE7DJD | 2026-09-02 18:06:36 | 43.88701 | -115.44664 | 345° | 9km/h | 19428m | 4.8m/s | -52.2°C | 1.2% | 0hPa | 0V | 00:00:00 | 00:00:00 | 00:00:00 | |
| KE7DJD | 2026-09-02 18:06:16 | 43.88644 | -115.44593 | 289° | 18km/h | 19322m | 5.9m/s | -51.5°C | 1.1% | 0hPa | 0V | 00:00:00 | 00:00:00 | 00:00:00 | |
| KE7DJD | 2026-09-02 18:05:56 | 43.88582 | -115.44556 | 350° | 16km/h | 19214m | 6.4m/s | -52.4°C | 1.1% | 0hPa | 0V | 00:00:00 | 00:00:00 | 00:00:00 | |
| KE7DJD | 2026-09-02 18:05:35 | 43.88452 | -115.44552 | 1° | 18km/h | 19105m | 5.5m/s | -55.1°C | 1.3% | 0hPa | 0V | 00:00:00 | 00:00:00 | 00:00:00 | |
| KE7DJD | 2026-09-02 18:05:14 | 43.88330 | -115.44633 | 18° | 31km/h | 18997m | 5.4m/s | -55.5°C | 1.3% | 0hPa | 0V | 00:00:00 | 00:00:00 | 00:00:00 | |
| KE7DJD | 2026-09-02 18:04:53 | 43.88229 | -115.44700 | 28° | 31km/h | 18888m | 3.5m/s | -55.5°C | 1.3% | 0hPa | 0V | 00:00:00 | 00:00:00 | 00:00:00 | |
| KE7DJD | 2026-09-02 18:04:12 | 43.88163 | -115.44777 | 342° | 9km/h | 18682m | 4.5m/s | -54.1°C | 1.3% | 0hPa | 0V | 00:00:00 | 00:00:00 | 00:00:00 | |
| KE7DJD | 2026-09-02 18:03:51 | 43.88171 | -115.44802 | 249° | 7km/h | 18573m | 5.9m/s | -53.2°C | 1.2% | 0hPa | 0V | 00:00:00 | 00:00:00 | 00:00:00 | |
| KE7DJD | 2026-09-02 18:03:31 | 43.88177 | -115.44852 | 166° | 18km/h | 18464m | 4.2m/s | -52.4°C | 1.2% | 0hPa | 0V | 00:00:00 | 00:00:00 | 00:00:00 | |
| KE7DJD | 2026-09-02 18:03:11 | 43.88160 | -115.44920 | 39° | 11km/h | 18355m | 5.2m/s | -52.1°C | 1.2% | 0hPa | 0V | 00:00:00 | 00:00:00 | 00:00:00 | |
| KE7DJD | 2026-09-02 18:02:50 | 43.88095 | -115.45004 | 55° | 18km/h | 18228m | 7.0m/s | -51.8°C | 1.2% | 0hPa | 0V | 00:00:00 | 00:00:00 | 00:00:00 | |
| KE7DJD | 2026-09-02 18:02:29 | 43.87966 | -115.45111 | 26° | 33km/h | 18112m | 3.8m/s | -51.1°C | 1.1% | 0hPa | 0V | 00:00:00 | 00:00:00 | 00:00:00 | |
| KE7DJD | 2026-09-02 18:02:08 | 43.87811 | -115.45231 | 30° | 20km/h | 18012m | 5.2m/s | -51.7°C | 1.1% | 0hPa | 0V | 00:00:00 | 00:00:00 | 00:00:00 | |
| KE7DJD | 2026-09-02 18:01:47 | 43.87691 | -115.45306 | 32° | 29km/h | 17905m | 4.2m/s | -52.5°C | 1.2% | 0hPa | 0V | 00:00:00 | 00:00:00 | 00:00:00 | |
| KE7DJD | 2026-09-02 18:01:26 | 43.87575 | -115.45448 | 55° | 37km/h | 17796m | 5.0m/s | -53.3°C | 1.2% | 0hPa | 0V | 00:00:00 | 00:00:00 | 00:00:00 | |
| KE7DJD | 2026-09-02 18:01:06 | 43.87515 | -115.45652 | 61° | 26km/h | 17691m | 5.2m/s | -53.5°C | 1.3% | 0hPa | 0V | 00:00:00 | 00:00:00 | 00:00:00 | |
| KE7DJD | 2026-09-02 18:00:45 | 43.87439 | -115.45814 | 57° | 38km/h | 17585m | 4.7m/s | -52.7°C | 1.3% | 0hPa | 0V | 00:00:00 | 00:00:00 | 00:00:00 | |
| KE7DJD | 2026-09-02 18:00:25 | 43.87361 | -115.45998 | 80° | 31km/h | 17485m | 4.6m/s | -53.7°C | 1.3% | 0hPa | 0V | 00:00:00 | 00:00:00 | 00:00:00 | |
| KE7DJD | 2026-09-02 18:00:04 | 43.87268 | -115.46230 | 66° | 46km/h | 17375m | 3.9m/s | -53.8°C | 1.3% | 0hPa | 0V | 00:00:00 | 00:00:00 | 00:00:00 | |
| KE7DJD | 2026-09-02 17:59:43 | 43.87141 | -115.46461 | 70° | 42km/h | 17262m | 6.2m/s | -53.4°C | 1.3% | 0hPa | 0V | 00:00:00 | 00:00:00 | 00:00:00 | |
| KE7DJD | 2026-09-02 17:59:22 | 43.87044 | -115.46690 | 67° | 42km/h | 17138m | 6.6m/s | -52.5°C | 1.3% | 0hPa | 0V | 00:00:00 | 00:00:00 | 00:00:00 | |
| KE7DJD | 2026-09-02 17:59:01 | 43.86945 | -115.46946 | 57° | 53km/h | 16995m | 8.1m/s | -51.7°C | 1.2% | 0hPa | 0V | 00:00:00 | 00:00:00 | 00:00:00 | |
| KE7DJD | 2026-09-02 17:58:40 | 43.86791 | -115.47234 | 48° | 51km/h | 16869m | 4.0m/s | -51.5°C | 1.2% | 0hPa | 0V | 00:00:00 | 00:00:00 | 00:00:00 | |
| KE7DJD | 2026-09-02 17:58:20 | 43.86617 | -115.47543 | 57° | 64km/h | 16771m | 5.1m/s | -51.7°C | 1.3% | 0hPa | 0V | 00:00:00 | 00:00:00 | 00:00:00 | |
| KE7DJD | 2026-09-02 17:58:00 | 43.86428 | -115.47839 | 44° | 58km/h | 16677m | 4.4m/s | -51.5°C | 1.2% | 0hPa | 0V | 00:00:00 | 00:00:00 | 00:00:00 | |
| KE7DJD | 2026-09-02 17:57:40 | 43.86209 | -115.48135 | 47° | 64km/h | 16585m | 3.9m/s | -51.7°C | 1.3% | 0hPa | 0V | 00:00:00 | 00:00:00 | 00:00:00 | |
| KE7DJD | 2026-09-02 17:57:19 | 43.85975 | -115.48455 | 47° | 69km/h | 16488m | 5.8m/s | -51.2°C | 1.2% | 0hPa | 0V | 00:00:00 | 00:00:00 | 00:00:00 | |
| KE7DJD | 2026-09-02 17:56:59 | 43.85737 | -115.48740 | 34° | 64km/h | 16392m | 5.3m/s | -50.6°C | 1.2% | 0hPa | 0V | 00:00:00 | 00:00:00 | 00:00:00 | |
| KE7DJD | 2026-09-02 17:56:39 | 43.85467 | -115.49001 | 37° | 71km/h | 16300m | 3.9m/s | -50.5°C | 1.2% | 0hPa | 0V | 00:00:00 | 00:00:00 | 00:00:00 | |
| KE7DJD | 2026-09-02 17:56:18 | 43.85174 | -115.49253 | 26° | 62km/h | 16202m | 3.7m/s | -50.1°C | 1.2% | 0hPa | 0V | 00:00:00 | 00:00:00 | 00:00:00 | |
| KE7DJD | 2026-09-02 17:55:58 | 43.84913 | -115.49483 | 26° | 69km/h | 16107m | 5.0m/s | -51.8°C | 1.3% | 0hPa | 0V | 00:00:00 | 00:00:00 | 00:00:00 | |
| KE7DJD | 2026-09-02 17:55:37 | 43.84625 | -115.49695 | 25° | 46km/h | 16012m | 3.2m/s | -53.2°C | 1.5% | 0hPa | 0V | 00:00:00 | 00:00:00 | 00:00:00 | |
| KE7DJD | 2026-09-02 17:55:15 | 43.84340 | -115.49925 | 34° | 60km/h | 15904m | 3.9m/s | -52.7°C | 1.4% | 0hPa | 0V | 00:00:00 | 00:00:00 | 00:00:00 | |
| KE7DJD | 2026-09-02 17:54:55 | 43.84100 | -115.50121 | 37° | 62km/h | 15807m | 4.3m/s | -52.2°C | 1.4% | 0hPa | 0V | 00:00:00 | 00:00:00 | 00:00:00 | |
| KE7DJD | 2026-09-02 17:54:35 | 43.83859 | -115.50347 | 40° | 49km/h | 15696m | 5.2m/s | -52.4°C | 1.4% | 0hPa | 0V | 00:00:00 | 00:00:00 | 00:00:00 | |
| KE7DJD | 2026-09-02 17:54:14 | 43.83664 | -115.50664 | 55° | 55km/h | 15613m | 2.9m/s | -52.2°C | 1.4% | 0hPa | 0V | 00:00:00 | 00:00:00 | 00:00:00 | |
| KE7DJD | 2026-09-02 17:53:54 | 43.83490 | -115.50942 | 45° | 53km/h | 15531m | 5.7m/s | -52.1°C | 1.4% | 0hPa | 0V | 00:00:00 | 00:00:00 | 00:00:00 | |
| KE7DJD | 2026-09-02 17:53:34 | 43.83298 | -115.51186 | 43° | 51km/h | 15445m | 3.4m/s | -51.5°C | 1.4% | 0hPa | 0V | 00:00:00 | 00:00:00 | 00:00:00 | |
| KE7DJD | 2026-09-02 17:53:13 | 43.83095 | -115.51410 | 34° | 47km/h | 15343m | 5.7m/s | -50.8°C | 1.4% | 0hPa | 0V | 00:00:00 | 00:00:00 | 00:00:00 | |
| KE7DJD | 2026-09-02 17:52:52 | 43.82886 | -115.51601 | 35° | 46km/h | 15239m | 5.0m/s | -50.7°C | 1.3% | 0hPa | 0V | 00:00:00 | 00:00:00 | 00:00:00 | |
| KE7DJD | 2026-09-02 17:52:32 | 43.82655 | -115.51814 | 30° | 53km/h | 15148m | 5.7m/s | -50.6°C | 1.4% | 0hPa | 0V | 00:00:00 | 00:00:00 | 00:00:00 | |
| KE7DJD | 2026-09-02 17:52:12 | 43.82432 | -115.52029 | 27° | 42km/h | 15054m | 4.1m/s | -50.2°C | 1.3% | 0hPa | 0V | 00:00:00 | 00:00:00 | 00:00:00 | |
| KE7DJD | 2026-09-02 17:51:51 | 43.82225 | -115.52250 | 46° | 57km/h | 14967m | 4.3m/s | -49.8°C | 1.3% | 0hPa | 0V | 00:00:00 | 00:00:00 | 00:00:00 | |
| KE7DJD | 2026-09-02 17:51:31 | 43.82040 | -115.52516 | 51° | 60km/h | 14881m | 5.8m/s | -49.6°C | 1.3% | 0hPa | 0V | 00:00:00 | 00:00:00 | 00:00:00 | |
| KE7DJD | 2026-09-02 17:51:10 | 43.81825 | -115.52806 | 41° | 57km/h | 14787m | 5.1m/s | -49.3°C | 1.3% | 0hPa | 0V | 00:00:00 | 00:00:00 | 00:00:00 | |
| KE7DJD | 2026-09-02 17:50:49 | 43.81624 | -115.53069 | 55° | 49km/h | 14698m | 3.6m/s | -48.7°C | 1.2% | 0hPa | 0V | 00:00:00 | 00:00:00 | 00:00:00 | |
| KE7DJD | 2026-09-02 17:50:08 | 43.81238 | -115.53700 | 59° | 68km/h | 14513m | 4.8m/s | -48.9°C | 1.2% | 0hPa | 0V | 00:00:00 | 00:00:00 | 00:00:00 | |
| KE7DJD | 2026-09-02 17:49:48 | 43.80997 | -115.54146 | 55° | 86km/h | 14426m | 4.1m/s | -49.7°C | 1.3% | 0hPa | 0V | 00:00:00 | 00:00:00 | 00:00:00 | |
| KE7DJD | 2026-09-02 17:49:27 | 43.80730 | -115.54603 | 50° | 75km/h | 14340m | 3.4m/s | -49.4°C | 1.3% | 0hPa | 0V | 00:00:00 | 00:00:00 | 00:00:00 | |
| KE7DJD | 2026-09-02 17:49:07 | 43.80447 | -115.55002 | 49° | 73km/h | 14256m | 3.8m/s | -49.9°C | 1.4% | 0hPa | 0V | 00:00:00 | 00:00:00 | 00:00:00 | |
| KE7DJD | 2026-09-02 17:48:46 | 43.80162 | -115.55441 | 49° | 93km/h | 14167m | 3.3m/s | -50.6°C | 1.4% | 0hPa | 0V | 00:00:00 | 00:00:00 | 00:00:00 | |
| KE7DJD | 2026-09-02 17:48:25 | 43.79860 | -115.55929 | 51° | 78km/h | 14080m | 3.4m/s | -51.1°C | 1.5% | 0hPa | 0V | 00:00:00 | 00:00:00 | 00:00:00 | |
| KE7DJD | 2026-09-02 17:48:04 | 43.79545 | -115.56358 | 47° | 86km/h | 13994m | 4.1m/s | -51.1°C | 1.5% | 0hPa | 0V | 00:00:00 | 00:00:00 | 00:00:00 | |
| KE7DJD | 2026-09-02 17:47:44 | 43.79221 | -115.56754 | 40° | 86km/h | 13918m | 3.6m/s | -51.0°C | 1.5% | 0hPa | 0V | 00:00:00 | 00:00:00 | 00:00:00 | |
| KE7DJD | 2026-09-02 17:47:23 | 43.78897 | -115.57127 | 34° | 80km/h | 13836m | 4.4m/s | -51.5°C | 1.6% | 0hPa | 0V | 00:00:00 | 00:00:00 | 00:00:00 | |
| KE7DJD | 2026-09-02 17:47:02 | 43.78597 | -115.57476 | 45° | 77km/h | 13754m | 3.7m/s | -51.2°C | 1.6% | 0hPa | 0V | 00:00:00 | 00:00:00 | 00:00:00 | |
| KE7DJD | 2026-09-02 17:46:42 | 43.78316 | -115.57854 | 42° | 82km/h | 13681m | 4.7m/s | -51.2°C | 1.7% | 0hPa | 0V | 00:00:00 | 00:00:00 | 00:00:00 | |
| KE7DJD | 2026-09-02 17:46:21 | 43.78030 | -115.58228 | 45° | 78km/h | 13603m | 2.9m/s | -51.2°C | 1.7% | 0hPa | 0V | 00:00:00 | 00:00:00 | 00:00:00 | |
| KE7DJD | 2026-09-02 17:46:02 | 43.77794 | -115.58631 | 53° | 73km/h | 13523m | 4.9m/s | -51.3°C | 1.8% | 0hPa | 0V | 00:00:00 | 00:00:00 | 00:00:00 | |
| KE7DJD | 2026-09-02 17:45:40 | 43.77565 | -115.59029 | 51° | 57km/h | 13438m | 5.7m/s | -51.1°C | 1.8% | 0hPa | 0V | 00:00:00 | 00:00:00 | 00:00:00 | |
| KE7DJD | 2026-09-02 17:45:20 | 43.77346 | -115.59370 | 38° | 68km/h | 13350m | 5.5m/s | -50.8°C | 1.8% | 0hPa | 0V | 00:00:00 | 00:00:00 | 00:00:00 | |
| KE7DJD | 2026-09-02 17:44:59 | 43.77125 | -115.59768 | 54° | 75km/h | 13250m | 5.3m/s | -50.7°C | 2.0% | 0hPa | 0V | 00:00:00 | 00:00:00 | 00:00:00 | |
| KE7DJD | 2026-09-02 17:44:39 | 43.76899 | -115.60166 | 53° | 69km/h | 13156m | 4.6m/s | -51.0°C | 2.0% | 0hPa | 0V | 00:00:00 | 00:00:00 | 00:00:00 | |
| KE7DJD | 2026-09-02 17:43:58 | 43.76445 | -115.60944 | 51° | 71km/h | 12939m | 5.3m/s | -50.4°C | 1.9% | 0hPa | 0V | 00:00:00 | 00:00:00 | 00:00:00 | |
| KE7DJD | 2026-09-02 17:43:18 | 43.75990 | -115.61762 | 54° | 73km/h | 12699m | 6.9m/s | -48.9°C | 1.9% | 0hPa | 0V | 00:00:00 | 00:00:00 | 00:00:00 | |
| KE7DJD | 2026-09-02 17:42:57 | 43.75739 | -115.62177 | 49° | 80km/h | 12579m | 6.1m/s | -48.4°C | 1.8% | 0hPa | 0V | 00:00:00 | 00:00:00 | 00:00:00 | |
| KE7DJD | 2026-09-02 17:42:36 | 43.75476 | -115.62618 | 56° | 80km/h | 12464m | 5.7m/s | -48.0°C | 1.9% | 0hPa | 0V | 00:00:00 | 00:00:00 | 00:00:00 | |
| KE7DJD | 2026-09-02 17:42:15 | 43.75193 | -115.63071 | 54° | 78km/h | 12357m | 5.1m/s | -47.5°C | 1.9% | 0hPa | 0V | 00:00:00 | 00:00:00 | 00:00:00 | |
| KE7DJD | 2026-09-02 17:41:55 | 43.74950 | -115.63517 | 56° | 73km/h | 12263m | 5.1m/s | -47.4°C | 1.9% | 0hPa | 0V | 00:00:00 | 00:00:00 | 00:00:00 | |
| KE7DJD | 2026-09-02 17:41:35 | 43.74708 | -115.63975 | 52° | 86km/h | 12179m | 3.2m/s | -46.9°C | 1.9% | 0hPa | 0V | 00:00:00 | 00:00:00 | 00:00:00 | |
| KE7DJD | 2026-09-02 17:41:14 | 43.74425 | -115.64475 | 49° | 88km/h | 12097m | 4.8m/s | -46.9°C | 2.1% | 0hPa | 0V | 00:00:00 | 00:00:00 | 00:00:00 | |
| KE7DJD | 2026-09-02 17:40:53 | 43.74105 | -115.64929 | 47° | 82km/h | 12026m | 3.4m/s | -47.5°C | 2.4% | 0hPa | 0V | 00:00:00 | 00:00:00 | 00:00:00 | |
| KE7DJD | 2026-09-02 17:40:32 | 43.73812 | -115.65414 | 50° | 93km/h | 11958m | 3.3m/s | -47.8°C | 2.5% | 0hPa | 0V | 00:00:00 | 00:00:00 | 00:00:00 | |
| KE7DJD | 2026-09-02 17:40:12 | 43.73549 | -115.65931 | 53° | 88km/h | 11895m | 3.6m/s | -48.3°C | 3.1% | 0hPa | 0V | 00:00:00 | 00:00:00 | 00:00:00 | |
| KE7DJD | 2026-09-02 17:39:51 | 43.73283 | -115.66452 | 58° | 91km/h | 11823m | 4.1m/s | -48.4°C | 3.1% | 0hPa | 0V | 00:00:00 | 00:00:00 | 00:00:00 | |
| KE7DJD | 2026-09-02 17:39:30 | 43.73025 | -115.67026 | 57° | 95km/h | 11743m | 3.3m/s | -48.2°C | 3.6% | 0hPa | 0V | 00:00:00 | 00:00:00 | 00:00:00 | |
| KE7DJD | 2026-09-02 17:39:10 | 43.72793 | -115.67592 | 61° | 93km/h | 11657m | 5.0m/s | -48.6°C | 4.3% | 0hPa | 0V | 00:00:00 | 00:00:00 | 00:00:00 | |
| KE7DJD | 2026-09-02 17:38:49 | 43.72559 | -115.68192 | 63° | 102km/h | 11564m | 4.2m/s | -48.5°C | 4.1% | 0hPa | 0V | 00:00:00 | 00:00:00 | 00:00:00 | |
| KE7DJD | 2026-09-02 17:38:28 | 43.72364 | -115.68823 | 70° | 100km/h | 11463m | 5.6m/s | -49.0°C | 3.9% | 0hPa | 0V | 00:00:00 | 00:00:00 | 00:00:00 | |
| KE7DJD | 2026-09-02 17:38:08 | 43.72176 | -115.69449 | 68° | 89km/h | 11368m | 4.2m/s | -48.5°C | 3.7% | 0hPa | 0V | 00:00:00 | 00:00:00 | 00:00:00 | |
| KE7DJD | 2026-09-02 17:37:47 | 43.72007 | -115.70084 | 67° | 86km/h | 11260m | 5.3m/s | -48.0°C | 4.0% | 0hPa | 0V | 00:00:00 | 00:00:00 | 00:00:00 | |
| KE7DJD | 2026-09-02 17:37:26 | 43.71840 | -115.70709 | 72° | 93km/h | 11145m | 4.8m/s | -47.5°C | 5.3% | 0hPa | 0V | 00:00:00 | 00:00:00 | 00:00:00 | |
| KE7DJD | 2026-09-02 17:37:06 | 43.71670 | -115.71374 | 70° | 104km/h | 11036m | 6.8m/s | -48.2°C | 6.9% | 0hPa | 0V | 00:00:00 | 00:00:00 | 00:00:00 | |
| KE7DJD | 2026-09-02 17:36:45 | 43.71499 | -115.72127 | 74° | 110km/h | 10919m | 4.8m/s | -49.1°C | 8.8% | 0hPa | 0V | 00:00:00 | 00:00:00 | 00:00:00 | |
| KE7DJD | 2026-09-02 17:36:25 | 43.71347 | -115.72869 | 78° | 113km/h | 10808m | 5.4m/s | -49.8°C | 16.4% | 0hPa | 0V | 00:00:00 | 00:00:00 | 00:00:00 | |
| KE7DJD | 2026-09-02 17:36:05 | 43.71216 | -115.73652 | 79° | 106km/h | 10702m | 5.3m/s | -49.6°C | 23.5% | 0hPa | 0V | 00:00:00 | 00:00:00 | 00:00:00 | |
| KE7DJD | 2026-09-02 17:35:44 | 43.71072 | -115.74520 | 80° | 120km/h | 10588m | 6.8m/s | -49.3°C | 28.4% | 0hPa | 0V | 00:00:00 | 00:00:00 | 00:00:00 | |
| KE7DJD | 2026-09-02 17:35:24 | 43.70897 | -115.75388 | 77° | 131km/h | 10460m | 5.2m/s | -49.1°C | 30.9% | 0hPa | 0V | 00:00:00 | 00:00:00 | 00:00:00 | |
| KE7DJD | 2026-09-02 17:35:04 | 43.70675 | -115.76319 | 69° | 139km/h | 10353m | 4.6m/s | -48.5°C | 29.3% | 0hPa | 0V | 00:00:00 | 00:00:00 | 00:00:00 | |
| KE7DJD | 2026-09-02 17:34:43 | 43.70420 | -115.77310 | 73° | 139km/h | 10258m | 3.7m/s | -48.2°C | 27.5% | 0hPa | 0V | 00:00:00 | 00:00:00 | 00:00:00 | |
| KE7DJD | 2026-09-02 17:34:23 | 43.70177 | -115.78232 | 74° | 120km/h | 10166m | 5.1m/s | -47.4°C | 27.3% | 0hPa | 0V | 00:00:00 | 00:00:00 | 00:00:00 | |
| KE7DJD | 2026-09-02 17:34:02 | 43.69976 | -115.79196 | 74° | 142km/h | 10047m | 4.8m/s | -46.7°C | 28.5% | 0hPa | 0V | 00:00:00 | 00:00:00 | 00:00:00 | |
| KE7DJD | 2026-09-02 17:33:41 | 43.69834 | -115.80113 | 84° | 124km/h | 9918m | 7.0m/s | -45.6°C | 23.3% | 0hPa | 0V | 00:00:00 | 00:00:00 | 00:00:00 | |
| KE7DJD | 2026-09-02 17:33:20 | 43.69703 | -115.81045 | 79° | 120km/h | 9789m | 5.2m/s | -44.3°C | 20.0% | 0hPa | 0V | 00:00:00 | 00:00:00 | 00:00:00 | |
| KE7DJD | 2026-09-02 17:32:59 | 43.69557 | -115.81947 | 77° | 111km/h | 9667m | 5.0m/s | -43.1°C | 13.7% | 0hPa | 0V | 00:00:00 | 00:00:00 | 00:00:00 | |
| KE7DJD | 2026-09-02 17:32:38 | 43.69435 | -115.82808 | 80° | 113km/h | 9573m | 5.2m/s | -42.7°C | 14.6% | 0hPa | 0V | 00:00:00 | 00:00:00 | 00:00:00 | |
| KE7DJD | 2026-09-02 17:32:18 | 43.69317 | -115.83645 | 81° | 126km/h | 9467m | 6.6m/s | -42.4°C | 22.2% | 0hPa | 0V | 00:00:00 | 00:00:00 | 00:00:00 | |
| KE7DJD | 2026-09-02 17:31:57 | 43.69241 | -115.84564 | 84° | 130km/h | 9377m | 5.4m/s | -41.5°C | 23.7% | 0hPa | 0V | 00:00:00 | 00:00:00 | 00:00:00 | |
| KE7DJD | 2026-09-02 17:31:37 | 43.69171 | -115.85501 | 87° | 126km/h | 9288m | 3.0m/s | -40.7°C | 24.2% | 0hPa | 0V | 00:00:00 | 00:00:00 | 00:00:00 | |
| KE7DJD | 2026-09-02 17:31:16 | 43.69110 | -115.86405 | 87° | 126km/h | 9206m | 5.2m/s | -40.0°C | 18.0% | 0hPa | 0V | 00:00:00 | 00:00:00 | 00:00:00 | |
| KE7DJD | 2026-09-02 17:30:55 | 43.69057 | -115.87337 | 87° | 119km/h | 9114m | 3.9m/s | -39.5°C | 26.5% | 0hPa | 0V | 00:00:00 | 00:00:00 | 00:00:00 | |
| KE7DJD | 2026-09-02 17:30:35 | 43.69017 | -115.88242 | 86° | 137km/h | 9024m | 4.1m/s | -38.8°C | 26.7% | 0hPa | 0V | 00:00:00 | 00:00:00 | 00:00:00 | |
| KE7DJD | 2026-09-02 17:30:15 | 43.68971 | -115.89150 | 85° | 133km/h | 8930m | 5.5m/s | -38.0°C | 26.6% | 0hPa | 0V | 00:00:00 | 00:00:00 | 00:00:00 | |
| KE7DJD | 2026-09-02 17:29:55 | 43.68917 | -115.90070 | 85° | 133km/h | 8832m | 4.0m/s | -37.8°C | 14.2% | 0hPa | 0V | 00:00:00 | 00:00:00 | 00:00:00 | |
| KE7DJD | 2026-09-02 17:29:34 | 43.68842 | -115.90994 | 85° | 135km/h | 8729m | 4.6m/s | -37.0°C | 14.9% | 0hPa | 0V | 00:00:00 | 00:00:00 | 00:00:00 | |
| KE7DJD | 2026-09-02 17:29:15 | 43.68757 | -115.91853 | 83° | 131km/h | 8620m | 3.5m/s | -36.4°C | 17.4% | 0hPa | 0V | 00:00:00 | 00:00:00 | 00:00:00 | |
| KE7DJD | 2026-09-02 17:28:54 | 43.68669 | -115.92745 | 80° | 131km/h | 8521m | 5.3m/s | -35.6°C | 18.2% | 0hPa | 0V | 00:00:00 | 00:00:00 | 00:00:00 | |
| KE7DJD | 2026-09-02 17:28:34 | 43.68565 | -115.93684 | 83° | 130km/h | 8412m | 5.5m/s | -34.7°C | 18.1% | 0hPa | 0V | 00:00:00 | 00:00:00 | 00:00:00 | |
| KE7DJD | 2026-09-02 17:28:12 | 43.68448 | -115.94627 | 78° | 128km/h | 8307m | 5.8m/s | -33.8°C | 17.8% | 0hPa | 0V | 00:00:00 | 00:00:00 | 00:00:00 | |
| KE7DJD | 2026-09-02 17:27:53 | 43.68323 | -115.95525 | 81° | 128km/h | 8201m | 4.5m/s | -33.0°C | 20.5% | 0hPa | 0V | 00:00:00 | 00:00:00 | 00:00:00 | |
| KE7DJD | 2026-09-02 17:27:31 | 43.68201 | -115.96468 | 82° | 131km/h | 8093m | 6.2m/s | -31.9°C | 21.5% | 0hPa | 0V | 00:00:00 | 00:00:00 | 00:00:00 | |
| KE7DJD | 2026-09-02 17:27:11 | 43.68077 | -115.97362 | 80° | 130km/h | 7994m | 4.9m/s | -31.2°C | 19.3% | 0hPa | 0V | 00:00:00 | 00:00:00 | 00:00:00 | |
| KE7DJD | 2026-09-02 17:26:51 | 43.67929 | -115.98235 | 81° | 130km/h | 7895m | 4.2m/s | -30.7°C | 27.8% | 0hPa | 0V | 00:00:00 | 00:00:00 | 00:00:00 | |
| KE7DJD | 2026-09-02 17:26:30 | 43.67778 | -115.99141 | 77° | 126km/h | 7793m | 4.0m/s | -29.9°C | 30.8% | 0hPa | 0V | 00:00:00 | 00:00:00 | 00:00:00 | |
| KE7DJD | 2026-09-02 17:26:10 | 43.67647 | -115.99984 | 80° | 122km/h | 7697m | 6.8m/s | -29.3°C | 35.8% | 0hPa | 0V | 00:00:00 | 00:00:00 | 00:00:00 | |
| KE7DJD | 2026-09-02 17:25:49 | 43.67533 | -116.00874 | 78° | 115km/h | 7593m | 4.4m/s | -28.8°C | 46.6% | 0hPa | 0V | 00:00:00 | 00:00:00 | 00:00:00 | |
| KE7DJD | 2026-09-02 17:25:29 | 43.67421 | -116.01690 | 84° | 124km/h | 7490m | 3.4m/s | -27.9°C | 44.6% | 0hPa | 0V | 00:00:00 | 00:00:00 | 00:00:00 | |
| KE7DJD | 2026-09-02 17:25:09 | 43.67297 | -116.02538 | 81° | 130km/h | 7397m | 5.7m/s | -27.2°C | 38.0% | 0hPa | 0V | 00:00:00 | 00:00:00 | 00:00:00 | |
| KE7DJD | 2026-09-02 17:24:49 | 43.67172 | -116.03384 | 78° | 131km/h | 7305m | 3.3m/s | -26.3°C | 37.1% | 0hPa | 0V | 00:00:00 | 00:00:00 | 00:00:00 | |
| KE7DJD | 2026-09-02 17:24:28 | 43.67033 | -116.04273 | 80° | 120km/h | 7212m | 4.8m/s | -25.6°C | 38.5% | 0hPa | 0V | 00:00:00 | 00:00:00 | 00:00:00 | |
| KE7DJD | 2026-09-02 17:24:07 | 43.66903 | -116.05159 | 81° | 117km/h | 7116m | 5.6m/s | -24.9°C | 40.5% | 0hPa | 0V | 00:00:00 | 00:00:00 | 00:00:00 | |
| KE7DJD | 2026-09-02 17:23:47 | 43.66788 | -116.06014 | 79° | 133km/h | 7024m | 4.1m/s | -24.5°C | 37.4% | 0hPa | 0V | 00:00:00 | 00:00:00 | 00:00:00 | |
| KE7DJD | 2026-09-02 17:23:26 | 43.66666 | -116.06862 | 84° | 119km/h | 6920m | 3.9m/s | -23.9°C | 21.5% | 0hPa | 0V | 00:00:00 | 00:00:00 | 00:00:00 | |
| KE7DJD | 2026-09-02 17:23:06 | 43.66497 | -116.07638 | 68° | 115km/h | 6801m | 5.0m/s | -23.6°C | 15.0% | 0hPa | 0V | 00:00:00 | 00:00:00 | 00:00:00 | |
| KE7DJD | 2026-09-02 17:22:46 | 43.66300 | -116.08332 | 57° | 100km/h | 6682m | 5.5m/s | -23.1°C | 14.1% | 0hPa | 0V | 00:00:00 | 00:00:00 | 00:00:00 | |
| KE7DJD | 2026-09-02 17:22:26 | 43.66049 | -116.08965 | 62° | 104km/h | 6587m | 3.0m/s | -22.7°C | 14.2% | 0hPa | 0V | 00:00:00 | 00:00:00 | 00:00:00 | |
| KE7DJD | 2026-09-02 17:22:05 | 43.65799 | -116.09566 | 64° | 113km/h | 6506m | 3.0m/s | -22.3°C | 16.7% | 0hPa | 0V | 00:00:00 | 00:00:00 | 00:00:00 | |
| KE7DJD | 2026-09-02 17:21:45 | 43.65537 | -116.10172 | 58° | 86km/h | 6400m | 7.7m/s | -22.1°C | 26.4% | 0hPa | 0V | 00:00:00 | 00:00:00 | 00:00:00 | |
| KE7DJD | 2026-09-02 17:21:23 | 43.65265 | -116.10690 | 54° | 93km/h | 6299m | 6.6m/s | -22.0°C | 45.7% | 0hPa | 0V | 00:00:00 | 00:00:00 | 00:00:00 | |
| KE7DJD | 2026-09-02 17:21:02 | 43.65015 | -116.11153 | 56° | 84km/h | 6197m | 4.7m/s | -21.3°C | 48.0% | 0hPa | 0V | 00:00:00 | 00:00:00 | 00:00:00 | |
| KE7DJD | 2026-09-02 17:20:42 | 43.64777 | -116.11596 | 56° | 78km/h | 6113m | 4.9m/s | -20.6°C | 47.7% | 0hPa | 0V | 00:00:00 | 00:00:00 | 00:00:00 | |
| KE7DJD | 2026-09-02 17:20:21 | 43.64539 | -116.12060 | 49° | 84km/h | 6021m | 4.6m/s | -20.2°C | 52.7% | 0hPa | 0V | 00:00:00 | 00:00:00 | 00:00:00 | |
| KE7DJD | 2026-09-02 17:20:02 | 43.64307 | -116.12479 | 58° | 68km/h | 5940m | 3.2m/s | -19.5°C | 54.2% | 0hPa | 0V | 00:00:00 | 00:00:00 | 00:00:00 | |
| KE7DJD | 2026-09-02 17:19:40 | 43.64082 | -116.12897 | 47° | 64km/h | 5844m | 4.4m/s | -18.9°C | 56.5% | 0hPa | 0V | 00:00:00 | 00:00:00 | 00:00:00 | |
| KE7DJD | 2026-09-02 17:19:19 | 43.63862 | -116.13297 | 48° | 64km/h | 5753m | 2.9m/s | -18.2°C | 59.1% | 0hPa | 0V | 00:00:00 | 00:00:00 | 00:00:00 | |
| KE7DJD | 2026-09-02 17:18:59 | 43.63643 | -116.13649 | 59° | 58km/h | 5674m | 2.9m/s | -17.5°C | 57.4% | 0hPa | 0V | 00:00:00 | 00:00:00 | 00:00:00 | |
| KE7DJD | 2026-09-02 17:18:38 | 43.63428 | -116.14016 | 53° | 55km/h | 5593m | 4.5m/s | -17.0°C | 57.8% | 0hPa | 0V | 00:00:00 | 00:00:00 | 00:00:00 | |
| KE7DJD | 2026-09-02 17:18:18 | 43.63224 | -116.14340 | 48° | 66km/h | 5500m | 5.3m/s | -16.3°C | 59.6% | 0hPa | 0V | 00:00:00 | 00:00:00 | 00:00:00 | |
| KE7DJD | 2026-09-02 17:17:57 | 43.63015 | -116.14676 | 47° | 58km/h | 5404m | 4.8m/s | -15.7°C | 65.2% | 0hPa | 0V | 00:00:00 | 00:00:00 | 00:00:00 | |
| KE7DJD | 2026-09-02 17:17:36 | 43.62803 | -116.15033 | 46° | 53km/h | 5312m | 3.0m/s | -14.8°C | 61.9% | 0hPa | 0V | 00:00:00 | 00:00:00 | 00:00:00 | |
| KE7DJD | 2026-09-02 17:17:16 | 43.62592 | -116.15347 | 43° | 75km/h | 5234m | 4.0m/s | -14.1°C | 59.3% | 0hPa | 0V | 00:00:00 | 00:00:00 | 00:00:00 | |
| KE7DJD | 2026-09-02 17:16:55 | 43.62376 | -116.15686 | 56° | 60km/h | 5129m | 4.5m/s | -13.4°C | 64.3% | 0hPa | 0V | 00:00:00 | 00:00:00 | 00:00:00 | |
| KE7DJD | 2026-09-02 17:16:34 | 43.62164 | -116.15999 | 42° | 49km/h | 5036m | 4.9m/s | -12.6°C | 60.0% | 0hPa | 0V | 00:00:00 | 00:00:00 | 00:00:00 | |
| KE7DJD | 2026-09-02 17:16:14 | 43.61946 | -116.16282 | 34° | 66km/h | 4941m | 4.7m/s | -11.8°C | 49.1% | 0hPa | 0V | 00:00:00 | 00:00:00 | 00:00:00 | |
| KE7DJD | 2026-09-02 17:15:53 | 43.61697 | -116.16538 | 31° | 64km/h | 4830m | 6.1m/s | -11.0°C | 51.8% | 0hPa | 0V | 00:00:00 | 00:00:00 | 00:00:00 | |
| KE7DJD | 2026-09-02 17:15:32 | 43.61454 | -116.16808 | 27° | 58km/h | 4709m | 6.5m/s | -9.9°C | 45.6% | 0hPa | 0V | 00:00:00 | 00:00:00 | 00:00:00 | |
| KE7DJD | 2026-09-02 17:15:11 | 43.61172 | -116.17057 | 45° | 60km/h | 4609m | 5.4m/s | -9.1°C | 42.3% | 0hPa | 0V | 00:00:00 | 00:00:00 | 00:00:00 | |
| KE7DJD | 2026-09-02 17:14:50 | 43.60899 | -116.17287 | 25° | 62km/h | 4502m | 4.2m/s | -8.7°C | 42.5% | 0hPa | 0V | 00:00:00 | 00:00:00 | 00:00:00 | |
| KE7DJD | 2026-09-02 17:14:29 | 43.60614 | -116.17486 | 43° | 58km/h | 4408m | 8.4m/s | -8.4°C | 49.1% | 0hPa | 0V | 00:00:00 | 00:00:00 | 00:00:00 | |
| KE7DJD | 2026-09-02 17:14:08 | 43.60339 | -116.17716 | 24° | 66km/h | 4301m | 6.0m/s | -8.1°C | 54.9% | 0hPa | 0V | 00:00:00 | 00:00:00 | 00:00:00 | |
| KE7DJD | 2026-09-02 17:13:47 | 43.60065 | -116.17949 | 26° | 51km/h | 4195m | 4.6m/s | -7.7°C | 56.4% | 0hPa | 0V | 00:00:00 | 00:00:00 | 00:00:00 | |
| KE7DJD | 2026-09-02 17:13:27 | 43.59797 | -116.18158 | 30° | 68km/h | 4093m | 2.9m/s | -7.5°C | 77.7% | 0hPa | 0V | 00:00:00 | 00:00:00 | 00:00:00 | |
| KE7DJD | 2026-09-02 17:13:06 | 43.59537 | -116.18348 | 34° | 66km/h | 3988m | 4.4m/s | -7.1°C | 89.6% | 0hPa | 0V | 00:00:00 | 00:00:00 | 00:00:00 | |
| KE7DJD | 2026-09-02 17:12:45 | 43.59299 | -116.18588 | 29° | 62km/h | 3876m | 4.7m/s | -6.4°C | 56.2% | 0hPa | 0V | 00:00:00 | 00:00:00 | 00:00:00 | |
| KE7DJD | 2026-09-02 17:12:24 | 43.59064 | -116.18726 | 15° | 55km/h | 3755m | 5.4m/s | -5.3°C | 49.5% | 0hPa | 0V | 00:00:00 | 00:00:00 | 00:00:00 | |
| KE7DJD | 2026-09-02 17:12:04 | 43.58857 | -116.18856 | 24° | 55km/h | 3642m | 8.3m/s | -4.2°C | 46.4% | 0hPa | 0V | 00:00:00 | 00:00:00 | 00:00:00 | |
| KE7DJD | 2026-09-02 17:11:43 | 43.58638 | -116.18996 | 37° | 47km/h | 3518m | 6.0m/s | -3.1°C | 43.4% | 0hPa | 0V | 00:00:00 | 00:00:00 | 00:00:00 | |
| KE7DJD | 2026-09-02 17:11:22 | 43.58419 | -116.19106 | 7° | 40km/h | 3415m | 4.6m/s | -2.3°C | 44.9% | 0hPa | 0V | 00:00:00 | 00:00:00 | 00:00:00 | |
| KE7DJD | 2026-09-02 17:11:02 | 43.58193 | -116.19192 | 24° | 27km/h | 3303m | 6.8m/s | -1.2°C | 48.9% | 0hPa | 0V | 00:00:00 | 00:00:00 | 00:00:00 | |
| KE7DJD | 2026-09-02 17:10:41 | 43.58014 | -116.19260 | 3° | 53km/h | 3188m | 6.7m/s | -0.2°C | 48.9% | 0hPa | 0V | 00:00:00 | 00:00:00 | 00:00:00 | |
| KE7DJD | 2026-09-02 17:10:20 | 43.57817 | -116.19323 | 15° | 47km/h | 3062m | 5.0m/s | 0.8°C | 49.4% | 0hPa | 0V | 00:00:00 | 00:00:00 | 00:00:00 | |
| KE7DJD | 2026-09-02 17:09:59 | 43.57624 | -116.19361 | 355° | 38km/h | 2940m | 5.3m/s | 1.9°C | 47.0% | 0hPa | 0V | 00:00:00 | 00:00:00 | 00:00:00 | |
| KE7DJD | 2026-09-02 17:09:39 | 43.57470 | -116.19361 | 359° | 13km/h | 2818m | 7.3m/s | 2.6°C | 45.4% | 0hPa | 0V | 00:00:00 | 00:00:00 | 00:00:00 | |
| KE7DJD | 2026-09-02 17:09:18 | 43.57405 | -116.19424 | 25° | 15km/h | 2686m | 5.2m/s | 3.4°C | 46.2% | 0hPa | 0V | 00:00:00 | 00:00:00 | 00:00:00 | |
| KE7DJD | 2026-09-02 17:08:57 | 43.57364 | -116.19472 | 54° | 22km/h | 2571m | 4.4m/s | 4.5°C | 43.6% | 0hPa | 0V | 00:00:00 | 00:00:00 | 00:00:00 | |
| KE7DJD | 2026-09-02 17:08:36 | 43.57313 | -116.19523 | 333° | 5km/h | 2466m | 4.3m/s | 5.4°C | 42.5% | 0hPa | 0V | 00:00:00 | 00:00:00 | 00:00:00 | |
| KE7DJD | 2026-09-02 17:08:15 | 43.57262 | -116.19595 | 120° | 7km/h | 2353m | 5.6m/s | 6.5°C | 38.2% | 0hPa | 0V | 00:00:00 | 00:00:00 | 00:00:00 | |
| KE7DJD | 2026-09-02 17:07:54 | 43.57215 | -116.19666 | 126° | 13km/h | 2254m | 4.8m/s | 7.4°C | 36.1% | 0hPa | 0V | 00:00:00 | 00:00:00 | 00:00:00 | |
| KE7DJD | 2026-09-02 17:07:34 | 43.57178 | -116.19726 | 78° | 18km/h | 2141m | 5.0m/s | 8.1°C | 35.2% | 0hPa | 0V | 00:00:00 | 00:00:00 | 00:00:00 | |
| KE7DJD | 2026-09-02 17:07:13 | 43.57130 | -116.19819 | 70° | 22km/h | 2015m | 5.1m/s | 9.3°C | 33.0% | 0hPa | 0V | 00:00:00 | 00:00:00 | 00:00:00 | |
| KE7DJD | 2026-09-02 17:06:52 | 43.57065 | -116.19917 | 77° | 24km/h | 1898m | 6.0m/s | 10.4°C | 31.1% | 0hPa | 0V | 00:00:00 | 00:00:00 | 00:00:00 | |
| KE7DJD | 2026-09-02 17:06:32 | 43.56988 | -116.20003 | 41° | 33km/h | 1799m | 4.4m/s | 10.9°C | 32.7% | 0hPa | 0V | 00:00:00 | 00:00:00 | 00:00:00 | |
| KE7DJD | 2026-09-02 17:06:12 | 43.56921 | -116.20123 | 29° | 22km/h | 1689m | 7.9m/s | 11.8°C | 32.7% | 0hPa | 0V | 00:00:00 | 00:00:00 | 00:00:00 | |
| KE7DJD | 2026-09-02 17:05:51 | 43.56896 | -116.20258 | 50° | 29km/h | 1578m | 5.3m/s | 12.9°C | 0% | 0hPa | 0V | 00:00:00 | 00:00:00 | 00:00:00 | |
| KE7DJD | 2026-09-02 17:05:31 | 43.56864 | -116.20354 | 45° | 26km/h | 1483m | 4.5m/s | 0°C | 0% | 0hPa | 0V | 00:00:00 | 00:00:00 | 00:00:00 | |
| KE7DJD | 2026-09-02 17:05:11 | 43.56825 | -116.20468 | 134° | 15km/h | 1374m | 5.1m/s | 0°C | 0% | 0hPa | 0V | 00:00:00 | 00:00:00 | 00:00:00 | |
| KE7DJD | 2026-09-02 17:04:50 | 43.56793 | -116.20587 | 73° | 16km/h | 1256m | 4.7m/s | 0°C | 0% | 0hPa | 0V | 00:00:00 | 00:00:00 | 00:00:00 |